createdAt,value
2023-05-04T00:01:24.604Z,3.30
2023-05-04T00:06:28.415Z,3.28
2023-05-04T00:11:33.722Z,3.21
2023-05-04T00:16:39.670Z,3.15
2023-05-04T00:21:44.006Z,3.08
2023-05-04T00:26:49.329Z,3.02
2023-05-04T00:31:54.432Z,3.00
2023-05-04T00:37:01.384Z,2.97
2023-05-04T00:42:06.551Z,2.89
2023-05-04T00:47:12.036Z,2.82
2023-05-04T00:52:19.892Z,2.77
2023-05-04T00:57:24.967Z,2.76
2023-05-04T01:02:30.364Z,2.71
2023-05-04T01:07:50.678Z,2.59
2023-05-04T01:13:09.221Z,2.48
2023-05-04T01:18:13.751Z,2.40
2023-05-04T01:23:18.858Z,2.34
2023-05-04T01:28:31.804Z,2.28
2023-05-04T01:33:37.620Z,2.23
2023-05-04T01:38:43.378Z,2.21
2023-05-04T01:43:48.125Z,2.15
2023-05-04T01:48:52.975Z,2.13
2023-05-04T01:53:59.366Z,2.10
2023-05-04T01:59:03.780Z,2.05
2023-05-04T02:04:09.029Z,1.98
2023-05-04T02:09:15.960Z,1.88
2023-05-04T02:14:20.286Z,1.82
2023-05-04T02:19:26.074Z,1.76
2023-05-04T02:24:30.629Z,1.71
2023-05-04T02:29:38.813Z,1.65
2023-05-04T02:34:45.513Z,1.70
2023-05-04T02:39:50.391Z,1.70
2023-05-04T02:44:55.088Z,1.66
2023-05-04T02:50:00.184Z,1.66
2023-05-04T02:55:04.635Z,1.66
2023-05-04T03:00:10.793Z,1.68
2023-05-04T03:05:16.096Z,1.67
2023-05-04T03:10:20.499Z,1.64
2023-05-04T03:15:26.675Z,1.57
2023-05-04T03:20:31.578Z,1.51
2023-05-04T03:25:38.008Z,1.46
2023-05-04T03:30:44.727Z,1.45
2023-05-04T03:35:53.046Z,1.54
2023-05-04T03:40:57.661Z,1.65
2023-05-04T03:46:02.800Z,1.75
2023-05-04T03:51:07.857Z,1.86
2023-05-04T03:56:12.428Z,1.98
2023-05-04T04:01:17.064Z,2.10
2023-05-04T04:06:22.446Z,2.35
2023-05-04T04:11:29.665Z,3.51
2023-05-04T04:16:34.344Z,5.21
2023-05-04T04:21:39.846Z,6.71
2023-05-04T04:26:47.486Z,8.16
2023-05-04T04:31:51.827Z,9.43
2023-05-04T04:36:56.561Z,10.24
2023-05-04T04:42:10.093Z,10.99
2023-05-04T04:47:16.929Z,11.83
2023-05-04T04:52:23.844Z,12.00
2023-05-04T04:57:31.191Z,12.09
2023-05-04T05:02:37.142Z,12.20
2023-05-04T05:07:41.730Z,10.90
2023-05-04T05:12:49.684Z,9.79
2023-05-04T05:17:54.405Z,9.38
2023-05-04T05:23:01.727Z,9.19
2023-05-04T05:28:05.925Z,9.04
2023-05-04T05:33:10.633Z,9.06
2023-05-04T05:38:16.643Z,9.12
2023-05-04T05:43:23.472Z,9.28
2023-05-04T05:48:28.214Z,9.48
2023-05-04T05:53:33.001Z,9.53
2023-05-04T05:58:38.100Z,9.73
2023-05-04T06:03:45.299Z,9.94
2023-05-04T06:08:49.774Z,10.18
2023-05-04T06:13:55.244Z,10.32
2023-05-04T06:19:00.243Z,10.68
2023-05-04T06:24:06.752Z,10.84
2023-05-04T06:29:10.980Z,11.03
2023-05-04T06:34:17.540Z,11.28
2023-05-04T06:39:21.640Z,11.42
2023-05-04T06:44:25.710Z,11.61
2023-05-04T06:49:33.062Z,11.88
2023-05-04T06:54:37.069Z,12.14
2023-05-04T06:59:41.458Z,12.39
2023-05-04T07:04:45.324Z,12.58
2023-05-04T07:09:50.642Z,12.83
2023-05-04T07:14:54.809Z,13.09
2023-05-04T07:19:58.668Z,13.09
2023-05-04T07:25:05.426Z,13.23
2023-05-04T07:30:09.886Z,13.41
2023-05-04T07:35:14.026Z,13.52
2023-05-04T07:40:18.230Z,13.59
2023-05-04T07:45:22.054Z,13.75
2023-05-04T07:50:26.184Z,13.84
2023-05-04T07:55:31.286Z,14.10
2023-05-04T08:00:38.883Z,14.26
2023-05-04T08:05:42.888Z,14.48
2023-05-04T08:10:46.792Z,14.45
2023-05-04T08:15:50.727Z,14.40
2023-05-04T08:20:58.703Z,14.44
2023-05-04T08:26:03.838Z,14.69
2023-05-04T08:31:08.180Z,14.97
2023-05-04T08:36:24.108Z,15.14
2023-05-04T08:41:31.006Z,15.01
2023-05-04T08:46:35.105Z,14.87
2023-05-04T08:51:39.857Z,15.04
2023-05-04T08:56:47.342Z,15.02
2023-05-04T09:01:53.856Z,15.15
2023-05-04T09:06:59.016Z,15.15
2023-05-04T09:12:02.854Z,15.21
2023-05-04T09:17:26.061Z,15.28
2023-05-04T09:22:30.809Z,15.49
2023-05-04T09:27:34.472Z,15.70
2023-05-04T09:32:48.971Z,15.59
2023-05-04T09:37:53.427Z,15.64
2023-05-04T09:42:58.248Z,15.59
2023-05-04T09:48:02.453Z,15.55
2023-05-04T09:53:07.641Z,15.47
2023-05-04T09:58:12.386Z,15.52
2023-05-04T10:03:16.573Z,15.57
2023-05-04T10:08:21.252Z,15.45
2023-05-04T10:13:26.627Z,15.56
2023-05-04T10:18:38.836Z,15.58
2023-05-04T10:24:17.219Z,15.56
2023-05-04T10:29:23.893Z,15.81
2023-05-04T10:34:33.087Z,15.97
2023-05-04T10:39:37.118Z,16.14
2023-05-04T10:44:55.518Z,16.23
2023-05-04T10:50:11.440Z,16.71
2023-05-04T10:55:17.255Z,17.14
2023-05-04T11:00:21.946Z,17.16
2023-05-04T11:05:28.031Z,16.93
2023-05-04T11:10:32.089Z,17.13
2023-05-04T11:15:46.899Z,17.10
2023-05-04T11:20:52.582Z,17.12
2023-05-04T11:25:57.454Z,17.28
2023-05-04T11:31:01.446Z,17.07
2023-05-04T11:36:06.975Z,16.94
2023-05-04T11:41:11.276Z,16.91
2023-05-04T11:46:16.934Z,16.91
2023-05-04T11:51:25.208Z,16.97
2023-05-04T11:56:28.961Z,17.08
2023-05-04T12:01:37.269Z,16.94
2023-05-04T12:06:40.946Z,17.08
2023-05-04T12:11:54.778Z,17.07
2023-05-04T12:17:02.174Z,17.10
2023-05-04T12:22:06.436Z,17.26
2023-05-04T12:27:14.678Z,17.47
2023-05-04T12:32:21.003Z,17.27
2023-05-04T12:37:25.177Z,17.37
2023-05-04T12:42:29.487Z,17.75
2023-05-04T12:47:33.186Z,17.88
2023-05-04T12:52:37.030Z,17.77
2023-05-04T12:57:43.892Z,17.77
2023-05-04T13:02:47.933Z,17.77
2023-05-04T13:07:53.626Z,17.87
2023-05-04T13:12:57.552Z,17.92
2023-05-04T13:18:02.015Z,18.03
2023-05-04T13:23:05.728Z,18.08
2023-05-04T13:28:09.555Z,18.20
2023-05-04T13:33:28.271Z,18.43
2023-05-04T13:38:35.280Z,18.40
2023-05-04T13:43:39.480Z,18.25
2023-05-04T13:48:43.294Z,18.25
2023-05-04T13:53:47.116Z,18.28
2023-05-04T13:58:54.585Z,18.09
2023-05-04T14:03:59.551Z,17.96
2023-05-04T14:09:04.344Z,18.03
2023-05-04T14:14:09.081Z,17.92
2023-05-04T14:19:12.937Z,17.94
2023-05-04T14:24:17.142Z,18.02
2023-05-04T14:29:21.052Z,17.98
2023-05-04T14:34:25.101Z,17.94
2023-05-04T14:39:28.971Z,18.05
2023-05-04T14:44:33.010Z,18.13
2023-05-04T14:49:42.854Z,18.11
2023-05-04T14:54:47.075Z,18.26
2023-05-04T14:59:50.841Z,18.41
2023-05-04T15:04:54.613Z,18.53
2023-05-04T15:09:59.041Z,18.69
2023-05-04T15:15:03.750Z,18.69
2023-05-04T15:20:10.223Z,18.52
2023-05-04T15:25:14.070Z,18.35
2023-05-04T15:30:18.715Z,18.38
2023-05-04T15:35:22.965Z,18.41
2023-05-04T15:40:26.809Z,18.44
2023-05-04T15:45:30.913Z,18.41
2023-05-04T15:50:34.838Z,18.47
2023-05-04T15:55:38.825Z,18.45
2023-05-04T16:00:45.318Z,18.41
2023-05-04T16:05:50.996Z,18.45
2023-05-04T16:10:56.089Z,18.37
2023-05-04T16:16:00.950Z,18.34
2023-05-04T16:21:05.724Z,18.38
2023-05-04T16:26:09.644Z,18.25
2023-05-04T16:31:13.453Z,18.05
2023-05-04T16:36:17.163Z,17.96
2023-05-04T16:41:26.488Z,17.86
2023-05-04T16:46:35.677Z,17.69
2023-05-04T16:51:41.826Z,17.62
2023-05-04T16:56:45.655Z,17.55
2023-05-04T17:01:49.709Z,17.45
2023-05-04T17:06:53.862Z,17.32
2023-05-04T17:11:59.889Z,17.20
2023-05-04T17:17:04.000Z,17.04
2023-05-04T17:22:08.771Z,16.86
2023-05-04T17:27:13.270Z,16.68
2023-05-04T17:32:17.214Z,16.48
2023-05-04T17:37:21.490Z,16.29
2023-05-04T17:42:26.316Z,16.08
2023-05-04T17:47:31.515Z,15.90
2023-05-04T17:52:36.959Z,15.72
2023-05-04T17:57:43.032Z,15.55
2023-05-04T18:02:47.462Z,15.36
2023-05-04T18:07:51.705Z,15.20
2023-05-04T18:12:57.097Z,15.02
2023-05-04T18:18:02.152Z,14.85
2023-05-04T18:23:07.003Z,14.71
2023-05-04T18:28:13.395Z,14.55
2023-05-04T18:33:19.029Z,14.39
2023-05-04T18:38:26.948Z,14.22
2023-05-04T18:43:32.742Z,14.03
2023-05-04T18:48:37.661Z,13.88
2023-05-04T18:53:45.115Z,13.77
2023-05-04T18:58:52.763Z,13.64
2023-05-04T19:03:59.096Z,13.51
2023-05-04T19:09:03.739Z,13.36
2023-05-04T19:14:07.728Z,13.28
2023-05-04T19:19:13.181Z,13.21
2023-05-04T19:24:18.248Z,13.14
2023-05-04T19:29:22.461Z,13.05
2023-05-04T19:34:26.307Z,12.98
2023-05-04T19:39:31.965Z,12.95
2023-05-04T19:44:36.788Z,12.91
2023-05-04T19:49:41.396Z,12.86
2023-05-04T19:54:48.725Z,12.76
2023-05-04T19:59:59.831Z,12.57
2023-05-04T20:05:06.327Z,12.41
2023-05-04T20:10:10.367Z,12.25
2023-05-04T20:15:14.505Z,12.13
2023-05-04T20:20:25.159Z,11.96
2023-05-04T20:25:30.061Z,11.82
2023-05-04T20:30:35.469Z,11.74
2023-05-04T20:35:44.678Z,11.67
2023-05-04T20:40:50.471Z,11.50
2023-05-04T20:45:57.754Z,11.35
2023-05-04T20:51:13.469Z,11.22
2023-05-04T20:56:19.171Z,11.11
2023-05-04T21:01:23.309Z,11.06
2023-05-04T21:06:30.083Z,11.00
2023-05-04T21:11:35.229Z,10.89
2023-05-04T21:16:39.162Z,10.77
2023-05-04T21:21:43.081Z,10.66
2023-05-04T21:26:48.763Z,10.61
2023-05-04T21:31:52.785Z,10.53
2023-05-04T21:36:57.035Z,10.41
2023-05-04T21:42:02.272Z,10.26
2023-05-04T21:47:07.471Z,10.10
2023-05-04T21:52:11.534Z,9.86
2023-05-04T21:57:15.951Z,9.69
2023-05-04T22:02:20.843Z,9.63
2023-05-04T22:07:26.151Z,9.58
2023-05-04T22:12:31.077Z,9.54
2023-05-04T22:17:35.484Z,9.45
2023-05-04T22:22:40.040Z,9.35
2023-05-04T22:27:44.508Z,9.30
2023-05-04T22:32:48.334Z,9.22
2023-05-04T22:37:53.577Z,9.20
2023-05-04T22:42:58.713Z,9.24
2023-05-04T22:48:04.742Z,9.20
2023-05-04T22:53:09.977Z,9.10
2023-05-04T22:58:14.187Z,8.99
2023-05-04T23:03:19.234Z,8.89
2023-05-04T23:08:23.154Z,8.84
2023-05-04T23:13:29.905Z,8.77
2023-05-04T23:18:33.831Z,8.66
2023-05-04T23:23:37.520Z,8.51
2023-05-04T23:28:42.638Z,8.31
2023-05-04T23:33:48.330Z,8.10
2023-05-04T23:38:52.225Z,7.91
2023-05-04T23:44:02.103Z,7.84
2023-05-04T23:49:06.182Z,7.79
2023-05-04T23:54:12.879Z,7.74
2023-05-04T23:59:16.932Z,7.61
